Terminal Aerodrome Forecast
Issued by NWS New Orleans/Baton Rouge, LA

Home | Current Version | Previous Version | Text Only | Print | Product List | Glossary On
Versions: 1 2 3 4 5 6 7 8 9 10 11 12 13 14 15 16
000
FTUS44 KLIX 012300 RRA
TAFBTR
TAF
KBTR 012340Z 0200/0224 13006KT P6SM BKN035
     FM021200 VRB03KT P6SM VCSH SCT020 BKN080
     FM021600 18007KT P6SM VCTS SCT025 BKN040CB=

USA.gov is the U.S. government's official web portal to all federal, state and local government web resources and services.